Terminal Aerodrome Forecast
Issued by NWS Cleveland, OH

Home | Current Version | Previous Version | Text Only | Print | Product List | Glossary On
Versions: 1 2 3 4 5 6 7 8 9 10 11 12 13
857
FTUS41 KCLE 262324
TAFMFD
TAF
KMFD 262324Z 2700/2724 VRB03KT P6SM BKN090
     FM270200 16004KT P6SM SCT250
      TEMPO 2706/2709 3SM BR
     FM270900 VRB02KT 3SM BR SCT006 BKN250
      TEMPO 2709/2713 2SM BR BKN006
     FM271500 26004KT P6SM SCT250=

USA.gov is the U.S. government's official web portal to all federal, state and local government web resources and services.